createdAt,value
2023-03-12T00:00:11.472Z,38.20
2023-03-12T00:02:41.631Z,38.20
2023-03-12T00:05:11.635Z,38.10
2023-03-12T00:07:40.279Z,38.20
2023-03-12T00:10:10.813Z,38.20
2023-03-12T00:12:39.970Z,38.20
2023-03-12T00:15:10.551Z,38.20
2023-03-12T00:17:40.569Z,38.10
2023-03-12T00:20:12.044Z,38.10
2023-03-12T00:22:41.426Z,38.10
2023-03-12T00:25:15.052Z,38.10
2023-03-12T00:27:44.104Z,38.10
2023-03-12T00:30:16.800Z,38.20
2023-03-12T00:32:47.189Z,38.20
2023-03-12T00:35:15.938Z,38.20
2023-03-12T00:37:44.705Z,38.10
2023-03-12T00:40:15.255Z,38.20
2023-03-12T00:42:44.009Z,38.20
2023-03-12T00:45:13.142Z,38.20
2023-03-12T00:47:42.048Z,38.30
2023-03-12T00:50:12.942Z,38.30
2023-03-12T00:52:41.609Z,38.30
2023-03-12T00:55:10.874Z,38.40
2023-03-12T00:57:39.510Z,38.30
2023-03-12T01:00:10.807Z,38.30
2023-03-12T01:02:40.576Z,38.40
2023-03-12T01:05:14.023Z,38.30
2023-03-12T01:07:43.135Z,38.40
2023-03-12T01:10:15.726Z,38.30
2023-03-12T01:12:46.263Z,38.20
2023-03-12T01:15:17.601Z,38.20
2023-03-12T01:17:46.308Z,38.30
2023-03-12T01:20:16.461Z,38.40
2023-03-12T01:22:45.436Z,38.40
2023-03-12T01:25:14.506Z,38.40
2023-03-12T01:27:43.179Z,38.50
2023-03-12T01:30:13.636Z,38.50
2023-03-12T01:32:42.455Z,39.20
2023-03-12T01:35:11.902Z,38.60
2023-03-12T01:37:41.967Z,38.70
2023-03-12T01:40:16.564Z,38.80
2023-03-12T01:42:45.254Z,38.80
2023-03-12T01:46:15.739Z,38.80
2023-03-12T01:48:49.596Z,38.90
2023-03-12T01:51:20.552Z,38.80
2023-03-12T01:53:55.359Z,38.80
2023-03-12T01:56:28.393Z,38.80
2023-03-12T01:59:05.120Z,39.50
2023-03-12T02:01:34.527Z,38.80
2023-03-12T02:04:03.788Z,38.80
2023-03-12T02:06:39.446Z,38.80
2023-03-12T02:09:09.992Z,38.70
2023-03-12T02:11:38.641Z,38.70
2023-03-12T02:14:07.529Z,38.70
2023-03-12T02:16:36.372Z,38.80
2023-03-12T02:19:13.524Z,38.80
2023-03-12T02:21:42.278Z,38.80
2023-03-12T02:24:23.981Z,38.80
2023-03-12T02:27:13.690Z,39.50
2023-03-12T02:29:45.170Z,38.80
2023-03-12T02:32:23.209Z,38.80
2023-03-12T02:34:52.781Z,38.90
2023-03-12T02:37:21.837Z,39.20
2023-03-12T02:39:57.435Z,38.90
2023-03-12T02:42:28.063Z,39.00
2023-03-12T02:44:56.864Z,39.00
2023-03-12T02:47:26.509Z,39.00
2023-03-12T02:49:55.979Z,39.00
2023-03-12T02:52:24.738Z,38.90
2023-03-12T02:54:53.407Z,38.90
2023-03-12T02:57:22.105Z,38.90
2023-03-12T02:59:52.119Z,38.90
2023-03-12T03:02:20.784Z,38.90
2023-03-12T03:04:49.618Z,38.90
2023-03-12T03:07:18.324Z,39.00
2023-03-12T03:09:47.009Z,39.00
2023-03-12T03:12:15.794Z,39.00
2023-03-12T03:14:44.834Z,39.10
2023-03-12T03:17:14.899Z,39.10
2023-03-12T03:19:43.518Z,39.10
2023-03-12T03:22:12.358Z,39.20
2023-03-12T03:24:41.111Z,39.10
2023-03-12T03:27:10.081Z,39.10
2023-03-12T03:29:38.775Z,39.10
2023-03-12T03:32:08.267Z,39.20
2023-03-12T03:34:39.095Z,39.20
2023-03-12T03:37:08.001Z,39.20
2023-03-12T03:39:37.266Z,39.20
2023-03-12T03:42:06.573Z,39.30
2023-03-12T03:44:35.949Z,39.30
2023-03-12T03:47:04.681Z,39.30
2023-03-12T03:49:33.676Z,39.40
2023-03-12T03:52:03.791Z,39.40
2023-03-12T03:54:36.847Z,39.50
2023-03-12T03:57:07.534Z,39.40
2023-03-12T03:59:36.251Z,39.50
2023-03-12T04:02:04.944Z,39.60
2023-03-12T04:04:36.971Z,39.60
2023-03-12T04:07:07.568Z,39.60
2023-03-12T04:09:36.343Z,39.60
2023-03-12T04:12:05.535Z,39.60
2023-03-12T04:14:41.787Z,39.70
2023-03-12T04:17:11.717Z,39.70
2023-03-12T04:19:40.377Z,39.60
2023-03-12T04:22:10.388Z,39.60
2023-03-12T04:24:39.178Z,39.70
2023-03-12T04:27:08.337Z,39.70
2023-03-12T04:29:39.182Z,39.60
2023-03-12T04:32:08.530Z,39.70
2023-03-12T04:34:38.177Z,39.70
2023-03-12T04:37:07.087Z,39.70
2023-03-12T04:39:37.251Z,39.70
2023-03-12T04:42:06.035Z,39.90
2023-03-12T04:44:35.472Z,39.90
2023-03-12T04:47:05.781Z,39.90
2023-03-12T04:49:35.375Z,40.00
2023-03-12T04:52:04.070Z,40.00
2023-03-12T04:54:33.453Z,40.00
2023-03-12T04:57:04.250Z,40.10
2023-03-12T04:59:33.072Z,40.20
2023-03-12T05:02:02.014Z,40.20
2023-03-12T05:04:33.689Z,40.20
2023-03-12T05:07:02.615Z,40.20
2023-03-12T05:09:31.531Z,40.30
2023-03-12T05:12:00.567Z,40.20
2023-03-12T05:14:30.774Z,40.20
2023-03-12T05:16:59.485Z,40.20
2023-03-12T05:19:28.325Z,40.20
2023-03-12T05:21:56.971Z,40.20
2023-03-12T05:24:25.806Z,40.20
2023-03-12T05:26:54.524Z,40.30
2023-03-12T05:29:25.756Z,40.30
2023-03-12T05:31:57.304Z,40.30
2023-03-12T05:34:26.186Z,40.40
2023-03-12T05:36:54.816Z,40.40
2023-03-12T05:39:26.958Z,40.30
2023-03-12T05:41:58.944Z,40.40
2023-03-12T05:44:29.185Z,40.30
2023-03-12T05:46:59.349Z,40.30
2023-03-12T05:49:29.169Z,40.40
2023-03-12T05:51:59.997Z,40.40
2023-03-12T05:54:29.230Z,40.40
2023-03-12T05:56:58.170Z,40.50
2023-03-12T05:59:28.517Z,40.40
2023-03-12T06:01:59.438Z,40.40
2023-03-12T06:04:28.930Z,40.50
2023-03-12T06:06:57.758Z,40.50
2023-03-12T06:09:26.461Z,40.50
2023-03-12T06:11:56.083Z,40.50
2023-03-12T06:14:24.859Z,40.40
2023-03-12T06:16:53.704Z,40.50
2023-03-12T06:19:23.821Z,40.50
2023-03-12T06:21:52.610Z,40.50
2023-03-12T06:24:21.699Z,40.50
2023-03-12T06:27:01.351Z,40.50
2023-03-12T06:29:30.008Z,40.60
2023-03-12T06:31:58.614Z,40.80
2023-03-12T06:34:28.678Z,40.90
2023-03-12T06:36:57.334Z,41.00
2023-03-12T06:39:26.032Z,41.00
2023-03-12T06:41:54.704Z,41.00
2023-03-12T06:44:23.575Z,41.10
2023-03-12T06:46:52.320Z,41.10
2023-03-12T06:49:21.051Z,41.20
2023-03-12T06:51:51.223Z,41.20
2023-03-12T06:54:19.915Z,41.40
2023-03-12T06:56:48.576Z,41.30
2023-03-12T06:59:18.411Z,41.30
2023-03-12T07:01:47.064Z,41.30
2023-03-12T07:04:15.679Z,41.30
2023-03-12T07:06:44.359Z,41.40
2023-03-12T07:09:14.375Z,41.40
2023-03-12T07:11:42.962Z,41.50
2023-03-12T07:14:11.657Z,41.50
2023-03-12T07:16:40.332Z,41.60
2023-03-12T07:19:08.959Z,41.70
2023-03-12T07:21:37.666Z,41.80
2023-03-12T07:24:08.313Z,41.90
2023-03-12T07:26:38.369Z,42.00
2023-03-12T07:29:06.959Z,42.30
2023-03-12T07:31:35.672Z,42.20
2023-03-12T07:34:06.261Z,42.30
2023-03-12T07:36:35.352Z,42.40
2023-03-12T07:39:04.586Z,42.40
2023-03-12T07:41:33.277Z,42.40
2023-03-12T07:44:03.353Z,42.50
2023-03-12T07:46:32.126Z,42.70
2023-03-12T07:49:00.903Z,42.60
2023-03-12T07:51:29.662Z,42.70
2023-03-12T07:53:58.405Z,42.60
2023-03-12T07:56:27.237Z,42.70
2023-03-12T07:58:56.524Z,42.70
2023-03-12T08:01:32.101Z,42.70
2023-03-12T08:04:04.369Z,43.00
2023-03-12T08:06:33.202Z,43.00
2023-03-12T08:09:01.949Z,42.90
2023-03-12T08:11:31.193Z,43.00
2023-03-12T08:13:59.852Z,43.10
2023-03-12T08:16:30.000Z,43.10
2023-03-12T08:18:58.726Z,43.20
2023-03-12T08:21:27.382Z,43.20
2023-03-12T08:23:55.985Z,43.20
2023-03-12T08:26:24.710Z,43.20
2023-03-12T08:28:53.407Z,43.30
2023-03-12T08:31:22.690Z,43.30
2023-03-12T08:33:52.776Z,43.40
2023-03-12T08:36:22.606Z,43.60
2023-03-12T08:38:51.435Z,43.50
2023-03-12T08:41:21.666Z,43.60
2023-03-12T08:43:50.456Z,43.60
2023-03-12T08:46:19.412Z,43.60
2023-03-12T08:48:49.094Z,43.70
2023-03-12T08:51:19.117Z,43.70
2023-03-12T08:53:47.847Z,43.90
2023-03-12T08:56:16.623Z,43.80
2023-03-12T08:58:45.260Z,43.90
2023-03-12T09:01:15.052Z,43.90
2023-03-12T09:03:43.766Z,44.00
2023-03-12T09:06:16.929Z,44.00
2023-03-12T09:08:49.320Z,44.20
2023-03-12T09:11:18.086Z,44.40
2023-03-12T09:16:35.577Z,44.20
2023-03-12T09:19:04.559Z,44.30
2023-03-12T09:21:33.328Z,44.40
2023-03-12T09:24:03.349Z,44.40
2023-03-12T09:26:32.075Z,44.60
2023-03-12T09:29:00.852Z,44.50
2023-03-12T09:31:29.495Z,44.60
2023-03-12T09:33:58.173Z,44.60
2023-03-12T09:36:26.903Z,44.70
2023-03-12T09:38:56.242Z,44.80
2023-03-12T09:41:30.601Z,44.80
2023-03-12T09:44:05.819Z,45.20
2023-03-12T09:46:40.215Z,45.10
2023-03-12T09:49:18.531Z,45.10
2023-03-12T09:51:52.548Z,45.50
2023-03-12T09:54:29.633Z,45.20
2023-03-12T09:57:10.408Z,45.50
2023-03-12T09:59:39.104Z,45.50
2023-03-12T10:02:38.412Z,45.30
2023-03-12T10:05:11.168Z,46.00
2023-03-12T10:07:46.814Z,45.50
2023-03-12T10:10:37.986Z,46.00
2023-03-12T10:13:32.287Z,46.30
2023-03-12T10:16:15.916Z,46.50
2023-03-12T10:19:04.656Z,46.60
2023-03-12T10:21:42.683Z,46.80
2023-03-12T10:24:34.903Z,46.60
2023-03-12T10:27:03.825Z,47.20
2023-03-12T10:29:38.542Z,46.30
2023-03-12T10:32:16.703Z,47.00
2023-03-12T10:34:49.271Z,47.10
2023-03-12T10:37:24.311Z,47.20
2023-03-12T10:39:55.527Z,47.40
2023-03-12T10:42:26.826Z,47.20
2023-03-12T10:45:08.190Z,47.40
2023-03-12T10:47:39.013Z,48.10
2023-03-12T10:50:19.989Z,47.60
2023-03-12T10:52:50.524Z,48.70
2023-03-12T10:55:26.403Z,47.90
2023-03-12T10:57:55.628Z,48.40
2023-03-12T11:00:29.622Z,47.90
2023-03-12T11:03:03.533Z,48.40
2023-03-12T11:05:35.482Z,48.20
2023-03-12T11:08:05.818Z,48.30
2023-03-12T11:10:45.359Z,48.40
2023-03-12T11:13:35.309Z,49.30
2023-03-12T11:16:26.906Z,49.30
2023-03-12T11:18:57.656Z,49.50
2023-03-12T11:21:26.408Z,48.40
2023-03-12T11:24:11.444Z,48.50
2023-03-12T11:26:51.104Z,49.70
2023-03-12T11:29:29.691Z,49.20
2023-03-12T11:32:08.022Z,49.30
2023-03-12T11:34:40.462Z,49.60
2023-03-12T11:37:16.709Z,49.10
2023-03-12T11:40:09.943Z,49.30
2023-03-12T11:43:29.234Z,49.60
2023-03-12T11:46:19.528Z,49.50
2023-03-12T11:49:07.783Z,49.30
2023-03-12T11:51:48.643Z,49.70
2023-03-12T11:54:47.562Z,49.70
2023-03-12T11:57:29.423Z,50.10
2023-03-12T12:00:12.723Z,49.70
2023-03-12T12:03:09.393Z,49.90
2023-03-12T12:05:50.022Z,50.40
2023-03-12T12:08:39.257Z,49.80
2023-03-12T12:11:17.055Z,50.20
2023-03-12T12:14:01.199Z,50.00
2023-03-12T12:16:55.800Z,50.30
2023-03-12T12:19:44.850Z,50.80
2023-03-12T12:22:32.832Z,50.70
2023-03-12T12:25:26.936Z,51.10
2023-03-12T12:28:29.675Z,51.30
2023-03-12T12:31:16.737Z,51.10
2023-03-12T12:34:03.129Z,51.30
2023-03-12T12:36:36.086Z,51.60
2023-03-12T12:39:15.266Z,51.10
2023-03-12T12:41:51.422Z,51.90
2023-03-12T12:44:25.574Z,51.50
2023-03-12T12:47:01.319Z,51.60
2023-03-12T12:49:37.923Z,51.50
2023-03-12T12:52:09.657Z,52.00
2023-03-12T12:54:53.001Z,51.80
2023-03-12T12:57:28.315Z,52.70
2023-03-12T13:00:16.648Z,52.10
2023-03-12T13:02:48.512Z,52.50
2023-03-12T13:05:24.551Z,51.90
2023-03-12T13:07:53.263Z,52.40
2023-03-12T13:10:57.558Z,51.70
2023-03-12T13:13:33.969Z,53.00
2023-03-12T13:16:36.623Z,51.60
2023-03-12T13:19:24.121Z,52.90
2023-03-12T13:22:07.356Z,52.40
2023-03-12T13:24:45.036Z,52.70
2023-03-12T13:27:21.646Z,52.10
2023-03-12T13:29:56.859Z,52.40
2023-03-12T13:33:06.149Z,52.00
2023-03-12T13:35:38.948Z,52.80
2023-03-12T13:38:13.454Z,52.30
2023-03-12T13:41:03.210Z,52.10
2023-03-12T13:43:54.560Z,52.90
2023-03-12T13:46:42.405Z,52.90
2023-03-12T13:49:22.212Z,52.80
2023-03-12T13:52:09.503Z,52.70
2023-03-12T13:54:45.501Z,52.50
2023-03-12T13:57:26.787Z,52.30
2023-03-12T13:59:59.020Z,52.00
2023-03-12T14:02:32.364Z,52.30
2023-03-12T14:05:10.683Z,52.20
2023-03-12T14:08:02.997Z,52.70
2023-03-12T14:10:41.443Z,52.90
2023-03-12T14:13:29.936Z,52.40
2023-03-12T14:16:07.621Z,52.70
2023-03-12T14:18:38.778Z,52.50
2023-03-12T14:21:11.830Z,52.30
2023-03-12T14:23:46.015Z,52.50
2023-03-12T14:26:21.670Z,52.10
2023-03-12T14:29:00.228Z,52.40
2023-03-12T14:31:31.740Z,52.20
2023-03-12T14:34:05.554Z,52.20
2023-03-12T14:36:42.164Z,52.00
2023-03-12T14:39:22.032Z,52.50
2023-03-12T14:41:57.483Z,52.20
2023-03-12T14:44:28.787Z,52.40
2023-03-12T14:47:01.394Z,52.00
2023-03-12T14:49:32.662Z,52.20
2023-03-12T14:52:01.303Z,52.00
2023-03-12T14:54:30.545Z,51.90
2023-03-12T14:56:59.219Z,51.80
2023-03-12T14:59:31.162Z,51.80
2023-03-12T15:02:09.078Z,52.00
2023-03-12T15:04:38.094Z,52.10
2023-03-12T15:07:11.408Z,51.70
2023-03-12T15:09:44.568Z,51.90
2023-03-12T15:12:22.667Z,51.90
2023-03-12T15:14:55.720Z,51.90
2023-03-12T15:17:30.246Z,51.70
2023-03-12T15:19:59.701Z,51.70
2023-03-12T15:22:29.166Z,51.60
2023-03-12T15:25:02.977Z,51.60
2023-03-12T15:27:35.555Z,51.70
2023-03-12T15:30:25.264Z,52.40
2023-03-12T15:33:13.807Z,51.70
2023-03-12T15:35:47.949Z,52.20
2023-03-12T15:38:18.118Z,51.70
2023-03-12T15:40:51.810Z,51.60
2023-03-12T15:43:23.425Z,52.60
2023-03-12T15:46:00.477Z,51.70
2023-03-12T15:48:35.078Z,52.00
2023-03-12T15:51:04.143Z,51.90
2023-03-12T15:53:35.269Z,51.60
2023-03-12T15:56:09.461Z,51.60
2023-03-12T15:58:41.189Z,51.70
2023-03-12T16:01:13.083Z,51.70
2023-03-12T16:03:45.609Z,51.70
2023-03-12T16:06:16.515Z,51.80
2023-03-12T16:08:48.358Z,51.70
2023-03-12T16:11:19.758Z,51.70
2023-03-12T16:13:50.176Z,51.70
2023-03-12T16:16:19.357Z,51.80
2023-03-12T16:18:49.504Z,51.70
2023-03-12T16:21:18.188Z,51.80
2023-03-12T16:23:47.319Z,51.70
2023-03-12T16:26:16.386Z,51.70
2023-03-12T16:28:45.675Z,51.70
2023-03-12T16:31:15.752Z,51.60
2023-03-12T16:33:45.082Z,51.70
2023-03-12T16:36:19.293Z,51.60
2023-03-12T16:38:48.788Z,51.70
2023-03-12T16:41:19.601Z,51.50
2023-03-12T16:43:51.569Z,51.60
2023-03-12T16:46:22.492Z,51.50
2023-03-12T16:48:54.266Z,51.60
2023-03-12T16:51:24.946Z,51.60
2023-03-12T16:54:07.461Z,51.50
2023-03-12T16:56:39.800Z,51.50
2023-03-12T16:59:17.236Z,51.40
2023-03-12T17:01:46.040Z,52.20
2023-03-12T17:04:14.712Z,51.40
2023-03-12T17:06:44.840Z,51.40
2023-03-12T17:09:13.480Z,51.50
2023-03-12T17:11:42.276Z,51.40
2023-03-12T17:14:19.647Z,51.50
2023-03-12T17:16:48.340Z,51.90
2023-03-12T17:19:17.112Z,51.50
2023-03-12T17:21:48.204Z,51.50
2023-03-12T17:24:17.031Z,51.60
2023-03-12T17:26:46.524Z,51.40
2023-03-12T17:29:15.246Z,51.60
2023-03-12T17:31:43.957Z,51.40
2023-03-12T17:34:12.695Z,51.50
2023-03-12T17:36:41.502Z,51.60
2023-03-12T17:39:12.143Z,51.60
2023-03-12T17:41:40.866Z,51.60
2023-03-12T17:44:10.164Z,51.50
2023-03-12T17:46:47.004Z,51.40
2023-03-12T17:49:22.354Z,51.40
2023-03-12T17:51:51.040Z,51.50
2023-03-12T17:54:22.079Z,51.40
2023-03-12T17:56:50.736Z,51.40
2023-03-12T17:59:19.426Z,51.20
2023-03-12T18:01:48.133Z,51.20
2023-03-12T18:04:16.889Z,51.20
2023-03-12T18:06:45.596Z,51.10
2023-03-12T18:09:14.249Z,51.10
2023-03-12T18:11:44.849Z,51.10
2023-03-12T18:14:13.568Z,51.10
2023-03-12T18:16:42.229Z,51.00
2023-03-12T18:19:11.262Z,51.00
2023-03-12T18:21:39.900Z,51.00
2023-03-12T18:24:14.165Z,51.00
2023-03-12T18:26:45.352Z,50.90
2023-03-12T18:29:14.171Z,50.90
2023-03-12T18:31:42.992Z,50.90
2023-03-12T18:34:11.712Z,50.80
2023-03-12T18:36:40.332Z,50.80
2023-03-12T18:39:09.807Z,50.80
2023-03-12T18:41:40.361Z,50.80
2023-03-12T18:44:13.124Z,50.80
2023-03-12T18:46:41.883Z,50.80
2023-03-12T18:49:12.382Z,50.70
2023-03-12T18:51:41.048Z,50.70
2023-03-12T18:54:09.632Z,50.70
2023-03-12T18:56:40.898Z,50.70
2023-03-12T18:59:13.097Z,50.70
2023-03-12T19:01:41.787Z,50.70
2023-03-12T19:04:11.422Z,50.60
2023-03-12T19:06:50.089Z,50.60
2023-03-12T19:09:19.877Z,50.60
2023-03-12T19:11:48.618Z,50.60
2023-03-12T19:14:18.800Z,50.60
2023-03-12T19:16:47.549Z,50.60
2023-03-12T19:19:17.090Z,50.60
2023-03-12T19:21:49.477Z,50.60
2023-03-12T19:24:18.149Z,50.70
2023-03-12T19:26:46.915Z,50.60
2023-03-12T19:29:16.969Z,50.60
2023-03-12T19:31:45.755Z,50.60
2023-03-12T19:34:14.572Z,50.60
2023-03-12T19:36:43.277Z,50.60
2023-03-12T19:39:21.123Z,50.60
2023-03-12T19:41:50.907Z,50.60
2023-03-12T19:44:20.948Z,50.60
2023-03-12T19:46:49.638Z,50.80
2023-03-12T19:49:18.279Z,50.60
2023-03-12T19:51:46.930Z,50.70
2023-03-12T19:54:15.587Z,50.60
2023-03-12T19:56:44.354Z,50.60
2023-03-12T19:59:13.033Z,50.50
2023-03-12T20:01:43.046Z,50.60
2023-03-12T20:04:11.759Z,50.60
2023-03-12T20:06:40.742Z,50.60
2023-03-12T20:09:09.876Z,50.60
2023-03-12T20:11:38.673Z,50.60
2023-03-12T20:14:07.428Z,50.60
2023-03-12T20:16:36.243Z,50.60
2023-03-12T20:19:06.412Z,50.60
2023-03-12T20:21:35.163Z,50.70
2023-03-12T20:24:05.159Z,50.60
2023-03-12T20:26:33.917Z,50.70
2023-03-12T20:29:03.015Z,50.60
2023-03-12T20:31:31.853Z,50.70
2023-03-12T20:34:00.714Z,50.60
2023-03-12T20:36:31.469Z,50.70
2023-03-12T20:39:00.213Z,50.80
2023-03-12T20:41:28.903Z,50.70
2023-03-12T20:43:58.619Z,50.70
2023-03-12T20:46:27.684Z,50.80
2023-03-12T20:48:56.898Z,50.70
2023-03-12T20:51:25.894Z,50.70
2023-03-12T20:53:55.900Z,50.70
2023-03-12T20:56:24.671Z,50.70
2023-03-12T20:58:53.844Z,50.70
2023-03-12T21:01:22.592Z,51.40
2023-03-12T21:03:51.279Z,50.70
2023-03-12T21:06:20.052Z,50.70
2023-03-12T21:08:49.016Z,50.70
2023-03-12T21:11:19.075Z,50.70
2023-03-12T21:13:50.102Z,50.80
2023-03-12T21:16:18.752Z,50.80
2023-03-12T21:18:47.370Z,50.90
2023-03-12T21:21:16.278Z,50.70
2023-03-12T21:23:45.587Z,50.70
2023-03-12T21:26:14.507Z,50.70
2023-03-12T21:28:44.668Z,50.70
2023-03-12T21:31:16.228Z,50.80
2023-03-12T21:33:45.021Z,50.80
2023-03-12T21:36:15.813Z,50.70
2023-03-12T21:38:44.567Z,50.80
2023-03-12T21:41:16.056Z,50.80
2023-03-12T21:43:47.357Z,50.80
2023-03-12T21:46:19.282Z,50.90
2023-03-12T21:48:49.343Z,50.80
2023-03-12T21:51:19.708Z,50.80
2023-03-12T21:53:48.450Z,50.80
2023-03-12T21:56:17.022Z,50.80
2023-03-12T21:58:46.995Z,50.80
2023-03-12T22:01:18.143Z,50.90
2023-03-12T22:03:47.991Z,50.70
2023-03-12T22:06:17.697Z,50.80
2023-03-12T22:08:49.274Z,50.80
2023-03-12T22:11:18.075Z,50.70
2023-03-12T22:13:48.156Z,50.70
2023-03-12T22:16:17.315Z,50.70
2023-03-12T22:18:47.326Z,50.60
2023-03-12T22:21:18.887Z,50.70
2023-03-12T22:23:48.228Z,50.60
2023-03-12T22:26:17.431Z,50.60
2023-03-12T22:28:51.455Z,50.60
2023-03-12T22:31:21.716Z,50.90
2023-03-12T22:33:53.419Z,50.50
2023-03-12T22:36:22.879Z,50.50
2023-03-12T22:38:51.749Z,50.60
2023-03-12T22:41:23.359Z,50.50
2023-03-12T22:43:55.851Z,50.50
2023-03-12T22:46:27.552Z,50.50
2023-03-12T22:48:58.808Z,50.50
2023-03-12T22:51:29.069Z,50.50
2023-03-12T22:53:57.745Z,50.50
2023-03-12T22:56:26.535Z,50.50
2023-03-12T22:58:56.788Z,50.50
2023-03-12T23:01:25.864Z,50.60
2023-03-12T23:03:55.107Z,50.60
2023-03-12T23:06:26.285Z,50.60
2023-03-12T23:08:55.848Z,50.60
2023-03-12T23:11:26.261Z,50.60
2023-03-12T23:13:56.833Z,50.60
2023-03-12T23:16:27.271Z,50.60
2023-03-12T23:18:57.241Z,50.70
2023-03-12T23:21:26.864Z,50.70
2023-03-12T23:23:55.778Z,50.70
2023-03-12T23:26:27.690Z,50.60
2023-03-12T23:29:00.114Z,50.70
2023-03-12T23:31:30.344Z,50.70
2023-03-12T23:33:59.506Z,50.70
2023-03-12T23:36:28.570Z,50.70
2023-03-12T23:38:57.554Z,50.70
2023-03-12T23:41:29.496Z,50.70
2023-03-12T23:44:00.571Z,50.70
2023-03-12T23:46:29.718Z,50.70
2023-03-12T23:48:58.869Z,50.70
2023-03-12T23:51:29.440Z,50.70
2023-03-12T23:54:00.269Z,50.70
2023-03-12T23:56:34.408Z,50.60
2023-03-12T23:59:05.678Z,50.80
